Vinalhaven, Maine
Current Conditions -  °F | °C
As of 7:15 PM on Friday 28 Nov 2014 (Local Time) from KRKD Reporting Station
Broken Clouds Broken Clouds  
Wind Chill: 19°   Ceiling: 3700
Heat Index: 25°   Visibility: 10mi
Dew Point: 19°   Wind: 5mph
Humidity: 80%   Direction: 280°W
Pressure: 30.09"   Gusts: NA
Location:  44.05°N, 68.82°W
Report Text: KRKD 290015Z AUTO 28004KT 10SM BKN037 M04/M07 A3009 RMK AO1
Loading
Personal Weather Stations






























Interactive Weather Map New forecast layout! Learn more

10-Day Weather Forecast

Advertisements
Track Severe Weather on mobile